Time;durP1;ratioP1;P1;durP2;ratioP2;P2;SDS_P1;SDS_P2;PMS_P1;PMS_P2;Temp;Humidity;BMP_temperature;BMP_pressure;BME280_temperature;BME280_humidity;BME280_pressure;Samples;Min_cycle;Max_cycle;Signal;HPM_P1;HPM_P2
2023/07/15 00:00:53;;;;;;;;;;;;;;;21.21;50.41;97563.22;5000400;28;20649;-71
2023/07/15 00:03:41;;;;;;;;;;;;;;;21.18;50.43;97566.75;4998911;28;20406;-62
2023/07/15 00:06:31;;;;;;;;;;;;;;;21.24;50.36;97567.94;5009487;28;20016;-63
2023/07/15 00:09:25;;;;;;;;;;;;;;;21.29;50.35;97562.03;5010680;28;19930;-64
2023/07/15 00:12:15;;;;;;;;;;;;;;;21.31;50.15;97562.50;4991723;28;19992;-67
2023/07/15 00:15:05;;;;;;;;;;;;;;;21.32;49.92;97555.00;5017916;28;19965;-71
2023/07/15 00:17:55;;;;;;;;;;;;;;;21.35;49.99;97552.22;5007107;28;19933;-66
2023/07/15 00:20:45;;;;;;;;;;;;;;;21.36;50.07;97553.00;5006405;28;19934;-63
2023/07/15 00:23:34;;;;;;;;;;;;;;;21.34;50.03;97549.84;5013918;28;19940;-65
2023/07/15 00:26:23;;;;;;;;;;;;;;;21.34;50.11;97553.41;5008485;28;20368;-64
2023/07/15 00:29:11;;;;;;;;;;;;;;;21.27;50.34;97549.81;5004858;28;19936;-61
2023/07/15 00:32:01;;;;;;;;;;;;;;;21.22;50.21;97553.75;5008038;28;19933;-62
2023/07/15 00:34:49;;;;;;;;;;;;;;;21.18;50.60;97561.22;5001516;28;20207;-64
2023/07/15 00:37:38;;;;;;;;;;;;;;;21.20;50.65;97556.13;4999251;28;20310;-65
2023/07/15 00:40:27;;;;;;;;;;;;;;;21.07;50.91;97565.94;5001217;28;20012;-62
2023/07/15 00:43:34;;;;;;;;;;;;;;;21.00;51.29;97557.63;5013312;28;19964;-65
2023/07/15 00:46:56;;;;;;;;;;;;;;;21.05;50.87;97557.25;4994997;28;20373;-66
2023/07/15 00:49:48;;;;;;;;;;;;;;;21.09;51.02;97563.56;4995761;28;19925;-65
2023/07/15 00:52:36;;;;;;;;;;;;;;;20.98;51.11;97562.72;5015454;28;19926;-65
2023/07/15 00:55:27;;;;;;;;;;;;;;;21.11;50.86;97563.97;4997525;28;19925;-67
2023/07/15 00:58:15;;;;;;;;;;;;;;;20.92;51.26;97570.59;5006518;28;19929;-63
2023/07/15 01:01:06;;;;;;;;;;;;;;;20.91;51.35;97567.03;4998197;28;20473;-67
2023/07/15 01:03:54;;;;;;;;;;;;;;;20.99;51.12;97564.34;4998263;28;19936;-65
2023/07/15 01:06:46;;;;;;;;;;;;;;;20.83;51.47;97565.44;5005486;28;19929;-65
2023/07/15 01:09:34;;;;;;;;;;;;;;;20.91;51.36;97566.25;5017554;28;19929;-64
2023/07/15 01:12:23;;;;;;;;;;;;;;;20.98;51.17;97565.50;5006940;28;20031;-64
2023/07/15 01:15:11;;;;;;;;;;;;;;;21.00;51.29;97561.16;4994213;28;19932;-61
2023/07/15 01:18:00;;;;;;;;;;;;;;;20.95;51.31;97567.06;5005289;28;19929;-60
2023/07/15 01:20:50;;;;;;;;;;;;;;;20.91;51.44;97567.03;5000996;28;19932;-67
2023/07/15 01:23:43;;;;;;;;;;;;;;;20.79;51.75;97561.06;5003307;28;19926;-63
2023/07/15 01:26:31;;;;;;;;;;;;;;;20.77;51.78;97566.97;5016017;28;19926;-62
2023/07/15 01:29:19;;;;;;;;;;;;;;;20.79;51.79;97553.59;5001921;28;20020;-66
2023/07/15 01:32:08;;;;;;;;;;;;;;;20.78;51.81;97554.78;4999379;28;19932;-65
2023/07/15 01:34:56;;;;;;;;;;;;;;;20.73;51.71;97549.63;4998554;28;19925;-62
2023/07/15 01:37:45;;;;;;;;;;;;;;;20.59;52.34;97550.31;5006248;28;20303;-65
2023/07/15 01:40:35;;;;;;;;;;;;;;;20.72;51.91;97555.50;5003125;28;19925;-61
2023/07/15 01:43:24;;;;;;;;;;;;;;;20.70;51.87;97550.38;5001854;28;19940;-61
2023/07/15 01:46:12;;;;;;;;;;;;;;;20.78;51.58;97546.50;4996241;28;19929;-63
2023/07/15 01:49:02;;;;;;;;;;;;;;;20.71;51.97;97551.16;4998428;28;20478;-64
2023/07/15 01:51:51;;;;;;;;;;;;;;;20.71;51.94;97551.97;5010630;28;20395;-64
2023/07/15 01:54:41;;;;;;;;;;;;;;;20.58;52.10;97553.47;5000276;28;19925;-62
2023/07/15 01:57:31;;;;;;;;;;;;;;;20.66;51.94;97552.31;5000409;28;19929;-62
2023/07/15 02:00:20;;;;;;;;;;;;;;;20.62;52.23;97551.53;5001393;28;20652;-62
2023/07/15 02:03:10;;;;;;;;;;;;;;;20.67;52.09;97551.97;4997595;28;19933;-62
2023/07/15 02:06:01;;;;;;;;;;;;;;;20.54;52.45;97547.13;4999532;28;20287;-65
2023/07/15 02:08:50;;;;;;;;;;;;;;;20.55;52.51;97548.72;5010944;28;19929;-61
2023/07/15 02:11:38;;;;;;;;;;;;;;;20.64;52.07;97547.19;4997561;28;19925;-63
2023/07/15 02:14:28;;;;;;;;;;;;;;;20.56;52.43;97551.13;5004108;28;20463;-65
2023/07/15 02:17:22;;;;;;;;;;;;;;;20.59;52.34;97546.78;4991628;28;20784;-64
2023/07/15 02:20:12;;;;;;;;;;;;;;;20.47;52.69;97542.38;4996849;28;20521;-64
2023/07/15 02:23:00;;;;;;;;;;;;;;;20.45;52.82;97549.41;4993205;28;19929;-61
2023/07/15 02:25:48;;;;;;;;;;;;;;;20.44;52.64;97542.31;5004306;28;20413;-62
2023/07/15 02:28:37;;;;;;;;;;;;;;;20.46;52.48;97540.81;5005172;28;19936;-67
2023/07/15 02:31:26;;;;;;;;;;;;;;;20.36;52.91;97542.28;5001424;28;19941;-64
2023/07/15 02:34:16;;;;;;;;;;;;;;;20.44;52.47;97545.06;5003752;28;19962;-62
2023/07/15 02:37:04;;;;;;;;;;;;;;;20.56;52.37;97539.25;5005545;28;19925;-64
2023/07/15 02:39:52;;;;;;;;;;;;;;;20.47;52.50;97536.06;5010179;28;19998;-65
2023/07/15 02:42:40;;;;;;;;;;;;;;;20.32;52.92;97538.69;5010408;28;19929;-63
2023/07/15 02:45:29;;;;;;;;;;;;;;;20.26;53.03;97537.50;4994642;28;19926;-63
2023/07/15 02:48:19;;;;;;;;;;;;;;;20.40;52.84;97537.59;4998270;28;20391;-64
2023/07/15 02:51:07;;;;;;;;;;;;;;;20.45;52.45;97539.16;5002869;28;19926;-63
2023/07/15 02:53:55;;;;;;;;;;;;;;;20.40;52.50;97537.59;4991732;28;20339;-61
2023/07/15 02:56:43;;;;;;;;;;;;;;;20.48;52.45;97534.88;5005087;28;19933;-62
2023/07/15 02:59:34;;;;;;;;;;;;;;;20.50;52.41;97535.28;5017077;28;20493;-63
2023/07/15 03:02:22;;;;;;;;;;;;;;;20.52;52.28;97539.25;4994105;28;20244;-66
2023/07/15 03:05:12;;;;;;;;;;;;;;;20.36;52.86;97541.50;5020152;28;19929;-62
2023/07/15 03:08:00;;;;;;;;;;;;;;;20.34;53.17;97538.31;5005849;28;19934;-62
2023/07/15 03:10:50;;;;;;;;;;;;;;;20.19;53.64;97542.97;5002913;28;19957;-63
2023/07/15 03:13:38;;;;;;;;;;;;;;;20.21;53.71;97537.06;5008214;28;20408;-66
2023/07/15 03:16:26;;;;;;;;;;;;;;;20.25;53.51;97541.44;5004769;28;20045;-61
2023/07/15 03:19:14;;;;;;;;;;;;;;;20.21;53.66;97540.59;5004063;28;20020;-63
2023/07/15 03:22:04;;;;;;;;;;;;;;;20.14;53.79;97543.31;5008424;28;19951;-64
2023/07/15 03:24:52;;;;;;;;;;;;;;;20.22;53.67;97536.66;4998344;28;19937;-66
2023/07/15 03:27:41;;;;;;;;;;;;;;;20.14;54.11;97549.63;5009378;28;20382;-62
2023/07/15 03:30:29;;;;;;;;;;;;;;;20.19;53.90;97542.97;5001467;28;19925;-64
2023/07/15 03:33:17;;;;;;;;;;;;;;;20.31;53.80;97544.63;5001516;28;19929;-65
2023/07/15 03:36:05;;;;;;;;;;;;;;;20.37;53.47;97541.09;5009027;28;20572;-62
2023/07/15 03:38:55;;;;;;;;;;;;;;;20.36;53.70;97539.53;5007663;28;19930;-61
2023/07/15 03:41:43;;;;;;;;;;;;;;;20.28;53.80;97548.91;5002891;28;20096;-67
2023/07/15 03:44:32;;;;;;;;;;;;;;;20.15;54.20;97551.22;5005336;28;20075;-61
2023/07/15 03:47:20;;;;;;;;;;;;;;;20.25;54.07;97544.19;4998780;28;19925;-62
2023/07/15 03:50:09;;;;;;;;;;;;;;;20.14;54.28;97549.63;5004626;28;19975;-66
2023/07/15 03:52:57;;;;;;;;;;;;;;;20.11;54.62;97546.84;5007537;28;19945;-62
2023/07/15 03:55:47;;;;;;;;;;;;;;;20.11;54.80;97552.34;5008307;28;19932;-61
2023/07/15 03:58:35;;;;;;;;;;;;;;;20.07;54.98;97551.53;5004617;28;19940;-64
2023/07/15 04:01:23;;;;;;;;;;;;;;;20.19;54.66;97551.25;4995218;28;19933;-67
2023/07/15 04:04:11;;;;;;;;;;;;;;;20.24;54.71;97553.63;5004384;28;19929;-64
2023/07/15 04:06:59;;;;;;;;;;;;;;;20.15;54.94;97553.19;5002025;28;20532;-61
2023/07/15 04:09:48;;;;;;;;;;;;;;;20.17;55.14;97548.06;5000408;28;19930;-63
2023/07/15 04:12:37;;;;;;;;;;;;;;;20.19;54.97;97551.25;5006301;28;19929;-63
2023/07/15 04:15:25;;;;;;;;;;;;;;;20.03;55.39;97553.47;4997982;28;19922;-64
2023/07/15 04:18:14;;;;;;;;;;;;;;;20.17;55.48;97550.81;5001899;28;20114;-63
2023/07/15 04:21:02;;;;;;;;;;;;;;;20.22;55.37;97553.22;5008440;28;19944;-65
2023/07/15 04:23:52;;;;;;;;;;;;;;;20.26;55.19;97559.56;5014812;28;19930;-61
2023/07/15 04:26:43;;;;;;;;;;;;;;;20.34;55.04;97561.16;5005476;28;20513;-63
2023/07/15 04:29:32;;;;;;;;;;;;;;;20.43;54.94;97563.59;5002938;28;19929;-63
2023/07/15 04:32:20;;;;;;;;;;;;;;;20.36;55.07;97555.28;4997994;28;20490;-66
2023/07/15 04:35:09;;;;;;;;;;;;;;;20.28;55.59;97557.19;5009007;28;19929;-65
2023/07/15 04:38:00;;;;;;;;;;;;;;;20.32;55.58;97558.00;5007945;28;19925;-63
2023/07/15 04:40:48;;;;;;;;;;;;;;;20.37;55.61;97554.91;5006623;28;19929;-60
2023/07/15 04:43:36;;;;;;;;;;;;;;;20.39;55.50;97563.56;4995565;28;20498;-65
2023/07/15 04:46:26;;;;;;;;;;;;;;;20.40;55.54;97559.66;4994888;28;19925;-62
2023/07/15 04:49:15;;;;;;;;;;;;;;;20.57;55.20;97557.41;5005976;28;20411;-62
2023/07/15 04:52:03;;;;;;;;;;;;;;;20.63;55.20;97564.16;5006601;28;20357;-66
2023/07/15 04:54:52;;;;;;;;;;;;;;;20.56;55.87;97561.34;5006887;28;19985;-62
2023/07/15 04:57:40;;;;;;;;;;;;;;;20.65;55.37;97564.53;5006902;28;19925;-63
2023/07/15 05:00:29;;;;;;;;;;;;;;;20.70;55.56;97569.69;4990736;28;20379;-60
2023/07/15 05:03:18;;;;;;;;;;;;;;;20.69;55.67;97570.88;4995435;28;20068;-62
2023/07/15 05:06:08;;;;;;;;;;;;;;;20.77;55.75;97569.72;4999359;28;19929;-63
2023/07/15 05:08:57;;;;;;;;;;;;;;;20.84;55.67;97567.03;5006061;28;20652;-61
2023/07/15 05:11:46;;;;;;;;;;;;;;;20.93;55.60;97573.00;5006569;28;19929;-62
2023/07/15 05:14:34;;;;;;;;;;;;;;;20.99;55.58;97570.66;5003393;28;19929;-61
2023/07/15 05:17:22;;;;;;;;;;;;;;;21.00;55.84;97566.69;4998110;28;20321;-64
2023/07/15 05:20:14;;;;;;;;;;;;;;;21.07;55.66;97569.47;4988479;28;20579;-62
2023/07/15 05:23:02;;;;;;;;;;;;;;;21.17;55.73;97571.50;4993100;28;19934;-63
2023/07/15 05:25:51;;;;;;;;;;;;;;;21.27;55.35;97572.72;5002628;28;20039;-63
2023/07/15 05:28:39;;;;;;;;;;;;;;;21.36;55.33;97564.88;5001953;28;19933;-61
2023/07/15 05:31:27;;;;;;;;;;;;;;;21.44;55.17;97568.44;5004684;28;19925;-61
2023/07/15 05:34:16;;;;;;;;;;;;;;;21.43;55.25;97575.16;5001639;28;20043;-61
2023/07/15 05:37:06;;;;;;;;;;;;;;;21.49;55.41;97570.81;5001128;28;20028;-62
2023/07/15 05:39:54;;;;;;;;;;;;;;;21.55;55.52;97572.00;5000706;28;19929;-65
2023/07/15 05:42:42;;;;;;;;;;;;;;;21.64;55.15;97574.41;4999886;28;19933;-61
2023/07/15 05:45:30;;;;;;;;;;;;;;;21.72;55.04;97576.00;4996502;28;19937;-63
2023/07/15 05:48:21;;;;;;;;;;;;;;;21.84;54.86;97572.84;4996672;28;20325;-63
2023/07/15 05:51:10;;;;;;;;;;;;;;;22.01;52.88;97570.50;4997796;28;19925;-63
2023/07/15 05:53:59;;;;;;;;;;;;;;;22.15;52.70;97578.81;5002992;28;19925;-61
2023/07/15 05:56:47;;;;;;;;;;;;;;;22.19;53.24;97577.63;4997081;28;19937;-64
2023/07/15 05:59:35;;;;;;;;;;;;;;;22.26;53.45;97579.59;4993768;28;19937;-61
2023/07/15 06:02:24;;;;;;;;;;;;;;;22.29;53.85;97578.00;4981323;28;20868;-67
2023/07/15 06:05:12;;;;;;;;;;;;;;;22.34;53.40;97570.09;4993446;28;19933;-64
2023/07/15 06:08:00;;;;;;;;;;;;;;;22.39;52.68;97569.69;5000404;28;19932;-64
2023/07/15 06:10:50;;;;;;;;;;;;;;;22.50;52.95;97580.75;4970306;28;20023;-63
2023/07/15 06:13:38;;;;;;;;;;;;;;;22.71;52.00;97572.41;5038081;28;20527;-62
2023/07/15 06:16:26;;;;;;;;;;;;;;;22.78;52.18;97573.56;5011683;28;19925;-62
2023/07/15 06:19:14;;;;;;;;;;;;;;;22.89;51.19;97566.81;5019706;28;19928;-62
2023/07/15 06:22:02;;;;;;;;;;;;;;;22.95;51.27;97568.00;5018486;28;19929;-63
2023/07/15 06:24:53;;;;;;;;;;;;;;;23.13;50.58;97569.91;5024594;28;20430;-63
2023/07/15 06:27:42;;;;;;;;;;;;;;;23.17;50.91;97568.72;5030809;28;20022;-66
2023/07/15 06:30:30;;;;;;;;;;;;;;;23.24;50.70;97565.91;5007944;28;19933;-62
2023/07/15 06:33:19;;;;;;;;;;;;;;;23.25;51.14;97573.00;5020743;28;19925;-63
2023/07/15 06:36:10;;;;;;;;;;;;;;;23.33;50.58;97565.47;5017795;28;19925;-63
2023/07/15 06:38:58;;;;;;;;;;;;;;;23.33;51.03;97565.47;5027159;28;19936;-62
2023/07/15 06:41:46;;;;;;;;;;;;;;;23.36;50.75;97569.41;5029734;28;19929;-64
2023/07/15 06:44:36;;;;;;;;;;;;;;;23.45;51.00;97566.97;5026733;28;19929;-62
2023/07/15 06:47:26;;;;;;;;;;;;;;;23.56;50.17;97561.38;5019151;28;20068;-67
2023/07/15 06:50:15;;;;;;;;;;;;;;;23.72;49.57;97564.47;5020939;28;19929;-64
2023/07/15 06:53:03;;;;;;;;;;;;;;;23.77;49.23;97564.03;5022917;28;19929;-64
2023/07/15 06:55:53;;;;;;;;;;;;;;;23.87;49.17;97559.63;5019357;28;19971;-64
2023/07/15 06:58:52;;;;;;;;;;;;;;;23.89;49.06;97554.44;5021451;28;19941;-64
2023/07/15 07:01:41;;;;;;;;;;;;;;;23.93;49.15;97546.88;5021519;28;20310;-61
2023/07/15 07:04:30;;;;;;;;;;;;;;;23.94;49.56;97546.47;5023393;28;19926;-60
2023/07/15 07:07:22;;;;;;;;;;;;;;;24.10;48.45;97556.25;5016924;28;19929;-61
2023/07/15 07:10:11;;;;;;;;;;;;;;;24.18;48.24;97543.88;5018598;28;19925;-65
2023/07/15 07:12:59;;;;;;;;;;;;;;;24.21;48.57;97543.06;5027621;28;19931;-61
2023/07/15 07:15:48;;;;;;;;;;;;;;;24.20;48.11;97538.72;5012809;28;19925;-63
2023/07/15 07:18:37;;;;;;;;;;;;;;;24.22;48.16;97539.88;5020480;28;20009;-61
2023/07/15 07:21:25;;;;;;;;;;;;;;;24.26;47.51;97540.63;5015490;28;19929;-63
2023/07/15 07:24:15;;;;;;;;;;;;;;;24.35;47.63;97537.41;5031391;28;19929;-61
2023/07/15 07:27:03;;;;;;;;;;;;;;;24.43;47.32;97541.69;5014415;28;19933;-70
2023/07/15 07:29:52;;;;;;;;;;;;;;;24.45;47.22;97538.47;5020727;28;20345;-62
2023/07/15 07:32:40;;;;;;;;;;;;;;;24.51;47.09;97543.19;5016667;28;19925;-61
2023/07/15 07:35:30;;;;;;;;;;;;;;;24.57;47.20;97551.88;5027683;28;19936;-66
2023/07/15 07:38:20;;;;;;;;;;;;;;;24.60;46.72;97542.69;5014495;28;20022;-61
2023/07/15 07:41:09;;;;;;;;;;;;;;;24.65;45.98;97549.78;5022990;28;19936;-61
2023/07/15 07:44:00;;;;;;;;;;;;;;;24.71;46.12;97556.47;5020513;28;19944;-62
2023/07/15 07:46:48;;;;;;;;;;;;;;;24.83;45.79;97550.41;5015642;28;20297;-62
2023/07/15 07:49:36;;;;;;;;;;;;;;;24.87;45.75;97548.34;5023666;28;21425;-62
2023/07/15 07:52:26;;;;;;;;;;;;;;;24.91;44.83;97546.31;5030025;28;19983;-64
2023/07/15 07:55:14;;;;;;;;;;;;;;;24.96;45.30;97533.94;5025233;28;19943;-62
2023/07/15 07:58:02;;;;;;;;;;;;;;;25.09;44.29;97529.47;5033257;28;20561;-67
2023/07/15 08:00:50;;;;;;;;;;;;;;;25.17;44.67;97528.16;5015279;28;19929;-65
2023/07/15 08:03:39;;;;;;;;;;;;;;;25.25;44.50;97535.19;5034426;28;19940;-65
2023/07/15 08:06:27;;;;;;;;;;;;;;;25.30;44.43;97522.81;5025817;28;20605;-61
2023/07/15 08:09:17;;;;;;;;;;;;;;;25.29;43.43;97521.22;5032743;28;20377;-62
2023/07/15 08:12:08;;;;;;;;;;;;;;;25.37;43.13;97524.72;5034725;28;19936;-65
2023/07/15 08:14:58;;;;;;;;;;;;;;;25.49;42.14;97524.13;5020650;28;19932;-62
2023/07/15 08:17:46;;;;;;;;;;;;;;;25.59;41.59;97517.63;5028384;28;19973;-60
2023/07/15 08:20:35;;;;;;;;;;;;;;;25.84;40.78;97503.38;5013719;28;20370;-59
2023/07/15 08:23:23;;;;;;;;;;;;;;;25.88;40.96;97514.41;5020883;28;19940;-58
2023/07/15 08:26:13;;;;;;;;;;;;;;;25.97;40.71;97507.09;5031747;28;19925;-57
2023/07/15 08:29:02;;;;;;;;;;;;;;;25.95;40.56;97503.19;5017747;28;19983;-61
2023/07/15 08:31:50;;;;;;;;;;;;;;;26.24;39.33;97500.69;5022747;28;19968;-61
2023/07/15 08:34:50;;;;;;;;;;;;;;;26.46;38.17;97503.88;5028280;28;19933;-58
2023/07/15 08:37:38;;;;;;;;;;;;;;;26.90;37.52;97499.84;5019867;28;20347;-58
2023/07/15 08:40:27;;;;;;;;;;;;;;;26.82;37.81;97506.75;5009960;28;19930;-57
2023/07/15 08:43:16;;;;;;;;;;;;;;;26.80;37.59;97514.78;5023420;28;19929;-59
2023/07/15 08:46:06;;;;;;;;;;;;;;;26.67;38.58;97520.19;5019811;28;19933;-57
2023/07/15 08:48:55;;;;;;;;;;;;;;;26.84;37.53;97513.47;5029674;28;20410;-59
2023/07/15 08:51:45;;;;;;;;;;;;;;;26.88;36.92;97518.97;5025733;28;19943;-57
2023/07/15 08:54:36;;;;;;;;;;;;;;;26.85;36.82;97503.91;5030888;28;20016;-56
2023/07/15 08:57:24;;;;;;;;;;;;;;;27.05;37.00;97497.50;5032088;28;20532;-59
2023/07/15 09:00:15;;;;;;;;;;;;;;;26.93;36.66;97496.19;5021521;28;19929;-58
2023/07/15 09:03:05;;;;;;;;;;;;;;;26.99;36.47;97496.47;5032320;28;19925;-57
2023/07/15 09:05:53;;;;;;;;;;;;;;;27.19;35.81;97500.03;5024739;28;19932;-60
2023/07/15 09:08:42;;;;;;;;;;;;;;;27.28;35.94;97489.09;5021769;28;19932;-57
2023/07/15 09:11:37;;;;;;;;;;;;;;;27.77;34.76;97483.56;5022735;28;19925;-56
2023/07/15 09:14:26;;;;;;;;;;;;;;;27.39;35.46;97486.06;5031464;28;20698;-58
2023/07/15 09:17:17;;;;;;;;;;;;;;;28.26;33.44;97486.31;5031946;28;19925;-58
2023/07/15 09:20:12;;;;;;;;;;;;;;;27.86;34.37;97480.19;5024962;28;19925;-57
2023/07/15 09:23:01;;;;;;;;;;;;;;;28.23;32.53;97472.44;5015550;28;19926;-57
2023/07/15 09:25:51;;;;;;;;;;;;;;;28.05;33.08;97468.09;5023316;28;19937;-57
2023/07/15 09:28:40;;;;;;;;;;;;;;;27.87;34.30;97467.78;5025270;28;19929;-57
2023/07/15 09:31:29;;;;;;;;;;;;;;;27.92;33.58;97458.88;5030644;28;19925;-58
2023/07/15 09:34:19;;;;;;;;;;;;;;;27.88;34.62;97477.72;5026905;28;20546;-58
2023/07/15 09:37:07;;;;;;;;;;;;;;;28.26;33.04;97457.59;5015157;28;20606;-58
2023/07/15 09:39:59;;;;;;;;;;;;;;;28.08;33.91;97460.88;5020984;28;19930;-59
2023/07/15 09:42:52;;;;;;;;;;;;;;;28.13;33.86;97469.50;5035145;28;19932;-59
2023/07/15 09:45:41;;;;;;;;;;;;;;;27.86;33.61;97464.22;5037731;28;19947;-56
2023/07/15 09:48:30;;;;;;;;;;;;;;;27.89;34.46;97468.91;5031245;28;20001;-57
2023/07/15 09:51:20;;;;;;;;;;;;;;;27.83;33.81;97464.28;5010092;28;20561;-55
2023/07/15 09:54:08;;;;;;;;;;;;;;;28.08;32.39;97458.06;5016174;28;20386;-57
2023/07/15 09:56:57;;;;;;;;;;;;;;;28.17;32.62;97455.41;5021121;28;19929;-58
2023/07/15 09:59:46;;;;;;;;;;;;;;;28.07;32.27;97451.72;5029441;28;19929;-56
2023/07/15 10:02:36;;;;;;;;;;;;;;;28.79;31.72;97452.53;5019033;28;20020;-61
2023/07/15 10:05:24;;;;;;;;;;;;;;;28.78;31.89;97462.94;5026217;28;19925;-58
2023/07/15 10:08:14;;;;;;;;;;;;;;;29.45;29.67;97454.53;5015765;28;19952;-60
2023/07/15 10:11:02;;;;;;;;;;;;;;;29.44;29.72;97460.56;5014582;28;19929;-61
2023/07/15 10:13:53;;;;;;;;;;;;;;;29.02;30.73;97449.47;5024669;28;20018;-60
2023/07/15 10:16:42;;;;;;;;;;;;;;;29.35;30.43;97446.47;5018392;28;20283;-58
2023/07/15 10:19:39;;;;;;;;;;;;;;;29.99;29.38;97442.41;5024313;28;19929;-58
2023/07/15 10:22:30;;;;;;;;;;;;;;;29.30;33.00;97447.06;5025464;28;19929;-58
2023/07/15 10:25:20;;;;;;;;;;;;;;;28.79;33.11;97449.75;5024392;28;20302;-61
2023/07/15 10:28:12;;;;;;;;;;;;;;;29.07;33.31;97443.31;5026299;28;20004;-59
2023/07/15 10:31:11;;;;;;;;;;;;;;;29.07;32.17;97432.13;5020958;28;20018;-59
2023/07/15 10:34:01;;;;;;;;;;;;;;;28.75;34.25;97433.06;5011298;28;19959;-59
2023/07/15 10:36:49;;;;;;;;;;;;;;;29.09;32.82;97429.69;5011535;28;19975;-58
2023/07/15 10:39:38;;;;;;;;;;;;;;;28.87;33.69;97423.13;5010545;28;19936;-59
2023/07/15 10:42:29;;;;;;;;;;;;;;;29.16;31.29;97423.09;5013787;28;19940;-58
2023/07/15 10:45:17;;;;;;;;;;;;;;;29.13;32.93;97424.75;5012857;28;19933;-61
2023/07/15 10:48:07;;;;;;;;;;;;;;;29.37;32.37;97416.81;5022024;28;19933;-61
2023/07/15 10:50:56;;;;;;;;;;;;;;;29.55;32.35;97410.66;5009627;28;19933;-59
2023/07/15 10:53:44;;;;;;;;;;;;;;;29.54;30.53;97414.69;5014666;28;19933;-59
2023/07/15 10:56:32;;;;;;;;;;;;;;;29.65;31.10;97403.94;5014261;28;19936;-59
2023/07/15 10:59:23;;;;;;;;;;;;;;;29.85;30.51;97409.25;5013432;28;19925;-59
2023/07/15 11:02:12;;;;;;;;;;;;;;;30.00;30.78;97406.75;5014919;28;19925;-60
2023/07/15 11:05:00;;;;;;;;;;;;;;;29.64;32.26;97391.16;5012875;28;20615;-56
2023/07/15 11:07:48;;;;;;;;;;;;;;;29.80;30.32;97398.63;5014121;28;19988;-56
2023/07/15 11:10:37;;;;;;;;;;;;;;;29.92;30.07;97405.44;5013173;28;19925;-58
2023/07/15 11:13:25;;;;;;;;;;;;;;;30.20;28.78;97407.28;5012762;28;19925;-57
2023/07/15 11:16:15;;;;;;;;;;;;;;;30.03;28.78;97394.63;5013871;28;19933;-57
2023/07/15 11:19:03;;;;;;;;;;;;;;;30.20;29.73;97396.06;5014762;28;19929;-59
2023/07/15 11:21:51;;;;;;;;;;;;;;;30.63;28.29;97400.09;5015014;28;19936;-59
2023/07/15 11:24:40;;;;;;;;;;;;;;;30.59;27.83;97393.06;5020411;28;19940;-59
2023/07/15 11:27:28;;;;;;;;;;;;;;;30.17;29.71;97385.75;5018728;28;19933;-57
2023/07/15 11:30:16;;;;;;;;;;;;;;;30.23;29.77;97380.34;5020535;28;19933;-58
2023/07/15 11:33:06;;;;;;;;;;;;;;;30.33;31.45;97401.59;5017362;28;20022;-58
2023/07/15 11:35:58;;;;;;;;;;;;;;;30.53;29.73;97387.28;5017201;28;20007;-58
2023/07/15 11:38:46;;;;;;;;;;;;;;;30.15;29.83;97382.66;5012879;28;20425;-56
2023/07/15 11:41:36;;;;;;;;;;;;;;;30.93;28.75;97392.19;5017467;28;20449;-56
2023/07/15 11:44:25;;;;;;;;;;;;;;;30.73;28.56;97373.69;5017585;28;19930;-62
2023/07/15 11:47:13;;;;;;;;;;;;;;;30.45;30.78;97374.75;5018989;28;19939;-62
2023/07/15 11:50:02;;;;;;;;;;;;;;;30.62;30.58;97378.13;5017780;28;19929;-58
2023/07/15 11:52:51;;;;;;;;;;;;;;;30.36;28.40;97374.66;5016734;28;20398;-59
2023/07/15 11:55:39;;;;;;;;;;;;;;;30.51;28.29;97367.31;5018581;28;20260;-59
2023/07/15 11:58:41;;;;;;;;;;;;;;;30.18;30.26;97356.50;5018291;28;19933;-60
2023/07/15 12:01:29;;;;;;;;;;;;;;;30.49;28.21;97352.97;5017466;28;19936;-59
2023/07/15 12:04:19;;;;;;;;;;;;;;;30.56;29.71;97352.69;5015807;28;20414;-59
2023/07/15 12:07:09;;;;;;;;;;;;;;;30.44;30.19;97339.56;5030650;28;19933;-57
2023/07/15 12:10:07;;;;;;;;;;;;;;;30.68;29.37;97343.44;5029287;28;19936;-56
2023/07/15 12:12:55;;;;;;;;;;;;;;;30.60;29.42;97339.34;5016330;28;20566;-58
2023/07/15 12:15:44;;;;;;;;;;;;;;;31.05;29.01;97326.75;5017397;28;20013;-57
2023/07/15 12:18:32;;;;;;;;;;;;;;;31.08;28.34;97325.84;5017501;28;19940;-60
2023/07/15 12:21:20;;;;;;;;;;;;;;;30.82;30.65;97332.91;5017630;28;19955;-57
2023/07/15 12:24:10;;;;;;;;;;;;;;;30.54;29.49;97321.53;5017630;28;19948;-57
2023/07/15 12:26:58;;;;;;;;;;;;;;;30.80;28.09;97318.59;5016543;28;19936;-58
2023/07/15 12:29:47;;;;;;;;;;;;;;;30.73;29.41;97319.63;5016729;28;20349;-58
2023/07/15 12:32:35;;;;;;;;;;;;;;;31.75;27.21;97321.50;5018196;28;20472;-57
2023/07/15 12:35:23;;;;;;;;;;;;;;;30.84;30.50;97311.59;5019461;28;20007;-57
2023/07/15 12:38:11;;;;;;;;;;;;;;;31.74;27.43;97312.25;5014871;28;19936;-57
2023/07/15 12:41:02;;;;;;;;;;;;;;;31.41;27.71;97302.88;5037376;28;20052;-57
2023/07/15 12:43:50;;;;;;;;;;;;;;;31.06;29.74;97303.09;5016593;28;20226;-57
2023/07/15 12:46:38;;;;;;;;;;;;;;;31.00;28.72;97302.94;5013997;28;19933;-57
2023/07/15 12:49:27;;;;;;;;;;;;;;;31.43;28.84;97304.00;5015761;28;19929;-57
2023/07/15 12:52:15;;;;;;;;;;;;;;;31.35;29.48;97304.75;5020876;28;19932;-57
2023/07/15 12:55:04;;;;;;;;;;;;;;;31.10;28.10;97303.72;5026169;28;19972;-57
2023/07/15 12:57:57;;;;;;;;;;;;;;;30.97;30.18;97311.47;5010960;28;20924;-59
2023/07/15 13:00:45;;;;;;;;;;;;;;;31.26;30.31;97297.09;5012059;28;19933;-57
2023/07/15 13:03:33;;;;;;;;;;;;;;;31.02;28.53;97294.81;5018121;28;19929;-59
2023/07/15 13:06:22;;;;;;;;;;;;;;;30.82;29.91;97299.28;5015895;28;20760;-59
2023/07/15 13:09:10;;;;;;;;;;;;;;;30.96;29.03;97293.09;5019060;28;19933;-57
2023/07/15 13:11:59;;;;;;;;;;;;;;;31.57;28.57;97285.75;5021859;28;20032;-57
2023/07/15 13:14:50;;;;;;;;;;;;;;;30.77;30.54;97287.41;5015853;28;20354;-57
2023/07/15 13:17:40;;;;;;;;;;;;;;;31.15;28.77;97283.47;5017751;28;20026;-57
2023/07/15 13:20:28;;;;;;;;;;;;;;;31.02;29.63;97271.59;5019898;28;19933;-59
2023/07/15 13:23:16;;;;;;;;;;;;;;;31.15;28.88;97272.25;5024111;28;19925;-56
2023/07/15 13:26:05;;;;;;;;;;;;;;;30.78;29.02;97263.72;5015367;28;20315;-58
2023/07/15 13:28:53;;;;;;;;;;;;;;;31.19;28.03;97258.84;5022322;28;19933;-58
2023/07/15 13:31:43;;;;;;;;;;;;;;;31.21;28.63;97261.19;5014264;28;19940;-56
2023/07/15 13:34:31;;;;;;;;;;;;;;;31.15;30.91;97260.25;5014457;28;19929;-58
2023/07/15 13:37:23;;;;;;;;;;;;;;;31.47;28.30;97258.91;5013766;28;19959;-59
2023/07/15 13:40:12;;;;;;;;;;;;;;;32.08;26.59;97248.59;5008492;28;19932;-57
2023/07/15 13:43:00;;;;;;;;;;;;;;;31.46;28.45;97246.91;5011995;28;19964;-56
2023/07/15 13:45:51;;;;;;;;;;;;;;;30.99;29.50;97239.63;5021405;28;19940;-57
2023/07/15 13:48:41;;;;;;;;;;;;;;;30.86;30.02;97235.41;5010663;28;19936;-57
2023/07/15 13:51:29;;;;;;;;;;;;;;;31.20;28.79;97243.56;5021985;28;19936;-58
2023/07/15 13:54:18;;;;;;;;;;;;;;;32.07;27.09;97241.44;5023110;28;19929;-57
2023/07/15 13:57:06;;;;;;;;;;;;;;;31.81;28.01;97243.81;5017569;28;19926;-56
2023/07/15 13:59:54;;;;;;;;;;;;;;;31.65;28.95;97239.28;5020322;28;19929;-58
2023/07/15 14:02:42;;;;;;;;;;;;;;;31.78;28.06;97237.06;5014738;28;19933;-57
2023/07/15 14:05:32;;;;;;;;;;;;;;;31.74;28.07;97232.84;5009223;28;19933;-58
2023/07/15 14:08:21;;;;;;;;;;;;;;;31.59;28.65;97229.09;5015630;28;19925;-59
2023/07/15 14:11:09;;;;;;;;;;;;;;;31.24;28.92;97227.38;5010464;28;19933;-57
2023/07/15 14:14:00;;;;;;;;;;;;;;;31.69;27.46;97225.81;5014192;28;19933;-57
2023/07/15 14:16:48;;;;;;;;;;;;;;;31.26;28.79;97224.91;5009563;28;19930;-57
2023/07/15 14:19:36;;;;;;;;;;;;;;;31.51;28.88;97217.44;5019234;28;19976;-57
2023/07/15 14:22:26;;;;;;;;;;;;;;;31.55;28.45;97226.47;5015505;28;19929;-57
2023/07/15 14:25:30;;;;;;;;;;;;;;;31.94;27.32;97218.34;5014530;28;19947;-56
2023/07/15 14:28:19;;;;;;;;;;;;;;;31.79;27.01;97210.53;5017846;28;19940;-58
2023/07/15 14:31:07;;;;;;;;;;;;;;;31.99;27.55;97218.50;5022323;28;19932;-57
2023/07/15 14:33:58;;;;;;;;;;;;;;;32.13;27.63;97217.06;5015814;28;19937;-57
2023/07/15 14:36:46;;;;;;;;;;;;;;;32.26;27.53;97220.44;5019444;28;20057;-57
2023/07/15 14:39:36;;;;;;;;;;;;;;;31.83;29.12;97220.88;5017230;28;20031;-57
2023/07/15 14:42:24;;;;;;;;;;;;;;;31.93;28.47;97213.97;5015447;28;19929;-57